createdAt,value
2023-02-12T00:01:11.032Z,7.52
2023-02-12T00:03:39.818Z,7.56
2023-02-12T00:06:08.576Z,7.50
2023-02-12T00:08:36.799Z,7.24
2023-02-12T00:11:09.245Z,7.32
2023-02-12T00:13:37.545Z,7.33
2023-02-12T00:16:08.991Z,7.42
2023-02-12T00:18:37.667Z,7.24
2023-02-12T00:21:08.733Z,7.23
2023-02-12T00:23:36.898Z,7.31
2023-02-12T00:26:06.909Z,7.08
2023-02-12T00:28:34.976Z,7.23
2023-02-12T00:31:08.430Z,7.26
2023-02-12T00:33:36.321Z,7.32
2023-02-12T00:36:04.789Z,7.37
2023-02-12T00:38:33.208Z,7.23
2023-02-12T00:41:01.256Z,7.56
2023-02-12T00:43:29.017Z,7.21
2023-02-12T00:45:57.160Z,7.30
2023-02-12T00:48:26.645Z,7.49
2023-02-12T00:50:54.436Z,7.45
2023-02-12T00:53:22.288Z,7.48
2023-02-12T00:55:50.092Z,7.46
2023-02-12T00:58:19.055Z,7.54
2023-02-12T01:00:46.991Z,7.47
2023-02-12T01:03:14.844Z,7.50
2023-02-12T01:05:44.035Z,7.49
2023-02-12T01:08:13.469Z,7.52
2023-02-12T01:10:41.263Z,7.57
2023-02-12T01:13:09.057Z,7.53
2023-02-12T01:15:36.832Z,7.43
2023-02-12T01:18:04.751Z,7.51
2023-02-12T01:20:32.617Z,7.59
2023-02-12T01:23:02.590Z,7.51
2023-02-12T01:25:30.346Z,7.48
2023-02-12T01:27:58.148Z,7.55
2023-02-12T01:30:25.954Z,7.28
2023-02-12T01:32:55.530Z,7.38
2023-02-12T01:35:23.321Z,7.35
2023-02-12T01:37:51.061Z,7.47
2023-02-12T01:40:20.752Z,7.47
2023-02-12T01:42:48.508Z,7.31
2023-02-12T01:45:46.608Z,7.45
2023-02-12T01:48:17.391Z,7.20
2023-02-12T01:50:47.241Z,7.33
2023-02-12T01:53:20.236Z,7.25
2023-02-12T01:55:59.015Z,7.26
2023-02-12T01:58:31.215Z,7.37
2023-02-12T02:01:00.773Z,7.21
2023-02-12T02:03:28.726Z,7.23
2023-02-12T02:06:02.331Z,7.26
2023-02-12T02:08:30.595Z,7.09
2023-02-12T02:10:59.799Z,6.99
2023-02-12T02:13:45.559Z,7.10
2023-02-12T02:16:21.727Z,6.97
2023-02-12T02:18:55.727Z,7.10
2023-02-12T02:21:53.628Z,6.91
2023-02-12T02:24:51.428Z,7.10
2023-02-12T02:27:31.802Z,6.97
2023-02-12T02:30:22.831Z,7.08
2023-02-12T02:33:01.506Z,7.11
2023-02-12T02:35:33.854Z,7.02
2023-02-12T02:38:19.389Z,6.97
2023-02-12T02:40:54.682Z,6.92
2023-02-12T02:43:28.682Z,6.89
2023-02-12T02:46:02.898Z,6.68
2023-02-12T02:48:36.415Z,6.75
2023-02-12T02:51:07.999Z,6.90
2023-02-12T02:53:40.556Z,6.92
2023-02-12T02:56:12.888Z,6.92
2023-02-12T02:58:44.397Z,7.02
2023-02-12T03:01:19.155Z,6.89
2023-02-12T03:03:53.113Z,6.72
2023-02-12T03:06:28.580Z,6.77
2023-02-12T03:08:59.375Z,6.58
2023-02-12T03:11:29.844Z,6.51
2023-02-12T03:14:03.841Z,6.50
2023-02-12T03:16:36.494Z,6.55
2023-02-12T03:19:10.165Z,6.67
2023-02-12T03:21:43.498Z,6.28
2023-02-12T03:24:17.639Z,6.46
2023-02-12T03:26:50.437Z,6.49
2023-02-12T03:29:18.381Z,6.36
2023-02-12T03:32:04.636Z,6.36
2023-02-12T03:34:47.309Z,6.41
2023-02-12T03:37:22.222Z,6.50
2023-02-12T03:39:56.497Z,6.45
2023-02-12T03:42:33.815Z,6.35
2023-02-12T03:45:10.043Z,6.28
2023-02-12T03:47:45.403Z,6.54
2023-02-12T03:50:18.678Z,6.53
2023-02-12T03:52:48.159Z,6.67
2023-02-12T03:55:17.486Z,6.47
2023-02-12T03:57:49.118Z,6.52
2023-02-12T04:00:20.203Z,6.43
2023-02-12T04:02:49.995Z,6.46
2023-02-12T04:05:20.160Z,6.48
2023-02-12T04:07:48.563Z,6.42
2023-02-12T04:10:17.092Z,6.49
2023-02-12T04:12:53.386Z,6.49
2023-02-12T04:15:38.722Z,6.41
2023-02-12T04:18:12.991Z,6.42
2023-02-12T04:20:51.349Z,6.47
2023-02-12T04:23:41.748Z,6.38
2023-02-12T04:26:18.516Z,6.53
2023-02-12T04:28:53.411Z,6.40
2023-02-12T04:31:25.500Z,6.56
2023-02-12T04:34:06.336Z,6.42
2023-02-12T04:36:39.275Z,6.39
2023-02-12T04:39:12.155Z,6.54
2023-02-12T04:41:40.606Z,6.50
2023-02-12T04:44:17.368Z,6.44
2023-02-12T04:46:45.194Z,6.54
2023-02-12T04:49:17.345Z,6.57
2023-02-12T04:51:46.384Z,6.33
2023-02-12T04:54:14.934Z,6.62
2023-02-12T04:56:42.815Z,6.54
2023-02-12T04:59:11.276Z,6.69
2023-02-12T05:01:40.482Z,6.60
2023-02-12T05:04:09.309Z,6.65
2023-02-12T05:06:40.181Z,6.73
2023-02-12T05:09:09.130Z,6.66
2023-02-12T05:11:36.911Z,6.72
2023-02-12T05:14:04.755Z,6.66
2023-02-12T05:16:32.857Z,6.77
2023-02-12T05:19:00.673Z,6.83
2023-02-12T05:21:28.482Z,6.79
2023-02-12T05:23:57.616Z,6.89
2023-02-12T05:26:25.459Z,6.84
2023-02-12T05:28:53.435Z,6.73
2023-02-12T05:31:22.453Z,6.77
2023-02-12T05:33:51.047Z,6.82
2023-02-12T05:36:20.812Z,6.89
2023-02-12T05:38:49.325Z,6.86
2023-02-12T05:41:20.833Z,6.46
2023-02-12T05:43:49.902Z,6.85
2023-02-12T05:46:19.122Z,6.94
2023-02-12T05:48:47.534Z,6.76
2023-02-12T05:51:17.564Z,6.90
2023-02-12T05:53:45.341Z,6.92
2023-02-12T05:56:15.452Z,6.84
2023-02-12T05:58:46.348Z,7.03
2023-02-12T06:01:15.904Z,6.48
2023-02-12T06:03:44.192Z,6.83
2023-02-12T06:06:12.679Z,7.00
2023-02-12T06:08:41.146Z,6.98
2023-02-12T06:11:11.654Z,7.07
2023-02-12T06:13:39.528Z,6.98
2023-02-12T06:16:09.100Z,6.99
2023-02-12T06:18:37.296Z,7.05
2023-02-12T06:21:05.479Z,7.04
2023-02-12T06:23:33.263Z,6.91
2023-02-12T06:26:01.040Z,6.87
2023-02-12T06:28:28.953Z,6.77
2023-02-12T06:30:56.871Z,6.74
2023-02-12T06:33:26.095Z,6.83
2023-02-12T06:35:54.277Z,6.96
2023-02-12T06:38:22.213Z,6.97
2023-02-12T06:40:50.043Z,6.80
2023-02-12T06:43:17.840Z,6.93
2023-02-12T06:45:45.667Z,6.86
2023-02-12T06:48:13.455Z,6.76
2023-02-12T06:50:42.727Z,6.58
2023-02-12T06:53:10.535Z,6.55
2023-02-12T06:55:38.308Z,6.53
2023-02-12T06:58:06.083Z,6.48
2023-02-12T07:00:33.966Z,6.45
2023-02-12T07:03:02.076Z,6.10
2023-02-12T07:05:29.909Z,6.49
2023-02-12T07:07:59.330Z,6.24
2023-02-12T07:10:27.117Z,6.38
2023-02-12T07:12:54.917Z,6.52
2023-02-12T07:15:22.678Z,6.58
2023-02-12T07:17:50.447Z,6.64
2023-02-12T07:20:18.382Z,6.68
2023-02-12T07:22:46.177Z,6.69
2023-02-12T07:25:15.474Z,6.78
2023-02-12T07:27:43.297Z,6.78
2023-02-12T07:30:11.982Z,6.87
2023-02-12T07:32:39.761Z,6.82
2023-02-12T07:35:08.468Z,6.87
2023-02-12T07:37:36.239Z,6.90
2023-02-12T07:40:04.599Z,6.87
2023-02-12T07:42:33.782Z,6.95
2023-02-12T07:45:01.595Z,6.97
2023-02-12T07:47:29.399Z,7.05
2023-02-12T07:49:57.201Z,7.07
2023-02-12T07:52:25.073Z,7.11
2023-02-12T07:54:52.879Z,6.98
2023-02-12T07:57:20.677Z,7.15
2023-02-12T07:59:49.859Z,7.18
2023-02-12T08:02:17.727Z,7.31
2023-02-12T08:04:45.618Z,7.32
2023-02-12T08:07:13.501Z,7.50
2023-02-12T08:09:41.328Z,7.65
2023-02-12T08:12:09.228Z,7.77
2023-02-12T08:14:37.058Z,7.81
2023-02-12T08:17:06.306Z,7.92
2023-02-12T08:19:34.052Z,7.94
2023-02-12T08:22:03.652Z,7.88
2023-02-12T08:24:31.712Z,7.94
2023-02-12T08:26:59.823Z,8.07
2023-02-12T08:29:29.842Z,7.79
2023-02-12T08:31:59.366Z,8.20
2023-02-12T08:34:30.934Z,8.20
2023-02-12T08:36:59.671Z,7.75
2023-02-12T08:39:29.493Z,8.11
2023-02-12T08:41:58.643Z,8.06
2023-02-12T08:44:29.100Z,8.00
2023-02-12T08:46:57.132Z,8.30
2023-02-12T08:49:26.822Z,8.06
2023-02-12T08:51:57.746Z,8.29
2023-02-12T08:54:28.292Z,8.32
2023-02-12T08:56:57.627Z,8.45
2023-02-12T08:59:26.054Z,8.26
2023-02-12T09:01:55.087Z,8.50
2023-02-12T09:04:25.176Z,8.46
2023-02-12T09:06:54.600Z,8.59
2023-02-12T09:09:24.409Z,8.51
2023-02-12T09:11:52.258Z,8.85
2023-02-12T09:14:23.942Z,8.67
2023-02-12T09:16:53.407Z,8.67
2023-02-12T09:19:21.860Z,8.79
2023-02-12T09:21:54.814Z,8.97
2023-02-12T09:24:25.414Z,8.84
2023-02-12T09:26:53.249Z,8.48
2023-02-12T09:29:21.132Z,8.75
2023-02-12T09:31:49.084Z,8.88
2023-02-12T09:34:17.034Z,9.13
2023-02-12T09:36:44.833Z,9.09
2023-02-12T09:39:12.729Z,9.12
2023-02-12T09:42:24.927Z,9.09
2023-02-12T09:45:01.456Z,9.39
2023-02-12T09:47:37.191Z,9.62
2023-02-12T09:50:18.568Z,9.39
2023-02-12T09:52:46.718Z,9.20
2023-02-12T09:55:17.191Z,9.40
2023-02-12T09:57:45.986Z,9.27
2023-02-12T10:00:23.013Z,9.21
2023-02-12T10:02:54.024Z,9.45
2023-02-12T10:05:28.010Z,9.57
2023-02-12T10:08:09.543Z,9.49
2023-02-12T10:10:49.584Z,9.41
2023-02-12T10:13:28.910Z,9.13
2023-02-12T10:16:04.147Z,9.61
2023-02-12T10:18:50.781Z,9.25
2023-02-12T10:21:30.831Z,8.74
2023-02-12T10:24:25.386Z,9.88
2023-02-12T10:27:01.091Z,9.91
2023-02-12T10:29:33.241Z,10.24
2023-02-12T10:32:06.743Z,10.27
2023-02-12T10:34:37.138Z,10.44
2023-02-12T10:37:12.653Z,10.34
2023-02-12T10:39:47.944Z,10.49
2023-02-12T10:42:19.537Z,10.24
2023-02-12T10:44:47.884Z,10.11
2023-02-12T10:47:20.903Z,9.86
2023-02-12T10:50:11.745Z,9.91
2023-02-12T10:52:46.949Z,8.83
2023-02-12T10:55:26.662Z,9.73
2023-02-12T10:57:55.414Z,9.48
2023-02-12T11:00:30.385Z,10.07
2023-02-12T11:03:06.928Z,10.10
2023-02-12T11:05:37.281Z,10.39
2023-02-12T11:08:05.999Z,10.20
2023-02-12T11:10:39.034Z,10.64
2023-02-12T11:13:07.642Z,10.54
2023-02-12T11:15:39.670Z,10.71
2023-02-12T11:18:10.849Z,10.84
2023-02-12T11:20:41.277Z,10.35
2023-02-12T11:23:26.932Z,9.87
2023-02-12T11:26:00.879Z,10.26
2023-02-12T11:28:29.566Z,10.34
2023-02-12T11:31:01.271Z,10.35
2023-02-12T11:33:33.359Z,10.63
2023-02-12T11:36:06.941Z,10.94
2023-02-12T11:38:38.756Z,11.06
2023-02-12T11:41:20.551Z,11.04
2023-02-12T11:43:48.861Z,10.88
2023-02-12T11:46:21.630Z,11.07
2023-02-12T11:48:52.298Z,10.44
2023-02-12T11:51:23.463Z,10.67
2023-02-12T11:53:54.454Z,10.51
2023-02-12T11:56:22.570Z,10.25
2023-02-12T11:58:52.415Z,10.69
2023-02-12T12:01:25.097Z,11.23
2023-02-12T12:04:03.631Z,9.91
2023-02-12T12:06:36.648Z,10.91
2023-02-12T12:09:12.720Z,11.01
2023-02-12T12:11:48.238Z,10.79
2023-02-12T12:14:25.483Z,10.88
2023-02-12T12:17:15.173Z,11.11
2023-02-12T12:19:53.514Z,10.86
2023-02-12T12:22:45.129Z,11.18
2023-02-12T12:25:23.425Z,10.86
2023-02-12T12:28:06.528Z,10.58
2023-02-12T12:30:42.867Z,10.73
2023-02-12T12:33:18.300Z,10.65
2023-02-12T12:35:58.337Z,10.57
2023-02-12T12:38:40.162Z,10.54
2023-02-12T12:41:20.504Z,10.04
2023-02-12T12:44:00.158Z,10.44
2023-02-12T12:46:43.225Z,10.66
2023-02-12T12:49:32.089Z,9.80
2023-02-12T12:52:42.638Z,10.36
2023-02-12T12:55:32.169Z,10.70
2023-02-12T12:58:10.798Z,11.09
2023-02-12T13:00:50.257Z,11.26
2023-02-12T13:03:42.578Z,11.44
2023-02-12T13:06:26.185Z,10.61
2023-02-12T13:09:09.217Z,10.82
2023-02-12T13:11:43.700Z,10.70
2023-02-12T13:14:27.652Z,10.72
2023-02-12T13:17:05.039Z,10.77
2023-02-12T13:19:43.438Z,10.45
2023-02-12T13:22:21.192Z,10.48
2023-02-12T13:24:59.100Z,10.56
2023-02-12T13:27:33.324Z,10.45
2023-02-12T13:30:06.901Z,10.48
2023-02-12T13:32:43.373Z,10.70
2023-02-12T13:35:17.180Z,10.31
2023-02-12T13:37:48.842Z,10.19
2023-02-12T13:40:19.784Z,10.36
2023-02-12T13:42:55.078Z,10.05
2023-02-12T13:45:36.390Z,9.93
2023-02-12T13:48:29.244Z,10.36
2023-02-12T13:51:02.396Z,10.15
2023-02-12T13:53:39.467Z,9.94
2023-02-12T13:56:18.432Z,9.88
2023-02-12T13:58:51.729Z,9.78
2023-02-12T14:01:42.743Z,9.49
2023-02-12T14:04:33.357Z,9.51
2023-02-12T14:07:05.134Z,9.47
2023-02-12T14:09:37.862Z,9.61
2023-02-12T14:12:09.598Z,9.44
2023-02-12T14:14:40.097Z,9.19
2023-02-12T14:17:43.724Z,9.54
2023-02-12T14:20:27.133Z,9.36
2023-02-12T14:23:13.980Z,9.69
2023-02-12T14:25:45.029Z,9.47
2023-02-12T14:28:29.087Z,9.21
2023-02-12T14:31:33.045Z,9.35
2023-02-12T14:34:50.041Z,9.59
2023-02-12T14:37:35.996Z,9.31
2023-02-12T14:40:42.727Z,9.15
2023-02-12T14:43:31.921Z,9.21
2023-02-12T14:46:20.600Z,9.05
2023-02-12T14:48:54.449Z,9.48
2023-02-12T14:51:27.756Z,9.24
2023-02-12T14:53:58.182Z,9.23
2023-02-12T14:56:26.557Z,8.79
2023-02-12T14:58:59.163Z,9.12
2023-02-12T15:01:33.882Z,8.88
2023-02-12T15:04:13.136Z,8.83
2023-02-12T15:06:44.771Z,8.67
2023-02-12T15:09:17.883Z,8.92
2023-02-12T15:11:51.307Z,8.69
2023-02-12T15:14:25.802Z,8.68
2023-02-12T15:16:59.994Z,9.04
2023-02-12T15:19:39.155Z,9.01
2023-02-12T15:22:20.310Z,9.01
2023-02-12T15:24:48.222Z,8.88
2023-02-12T15:27:17.223Z,8.50
2023-02-12T15:29:49.246Z,8.62
2023-02-12T15:32:20.784Z,8.52
2023-02-12T15:34:51.161Z,8.64
2023-02-12T15:37:24.313Z,8.54
2023-02-12T15:39:54.855Z,8.63
2023-02-12T15:42:28.239Z,8.77
2023-02-12T15:45:17.350Z,8.36
2023-02-12T15:47:46.887Z,8.45
2023-02-12T15:50:15.911Z,8.31
2023-02-12T15:52:47.268Z,8.38
2023-02-12T15:55:18.739Z,8.52
2023-02-12T15:57:51.766Z,8.08
2023-02-12T16:00:30.490Z,8.40
2023-02-12T16:02:58.361Z,8.52
2023-02-12T16:05:27.251Z,8.49
2023-02-12T16:07:55.889Z,8.06
2023-02-12T16:10:24.350Z,8.14
2023-02-12T16:12:52.897Z,7.88
2023-02-12T16:15:31.688Z,8.12
2023-02-12T16:18:04.038Z,8.16
2023-02-12T16:20:32.966Z,8.13
2023-02-12T16:23:06.230Z,8.13
2023-02-12T16:25:35.376Z,8.17
2023-02-12T16:28:05.504Z,7.83
2023-02-12T16:30:38.767Z,7.93
2023-02-12T16:33:33.694Z,7.89
2023-02-12T16:36:02.854Z,8.20
2023-02-12T16:38:42.249Z,8.21
2023-02-12T16:41:27.028Z,7.93
2023-02-12T16:44:37.365Z,7.94
2023-02-12T16:47:06.803Z,7.74
2023-02-12T16:49:34.660Z,8.01
2023-02-12T16:52:34.126Z,7.93
2023-02-12T16:55:02.358Z,8.09
2023-02-12T16:57:30.261Z,8.02
2023-02-12T16:59:58.063Z,7.89
2023-02-12T17:02:27.226Z,8.05
2023-02-12T17:04:56.652Z,8.02
2023-02-12T17:07:28.232Z,7.77
2023-02-12T17:09:56.156Z,7.77
2023-02-12T17:12:24.701Z,7.91
2023-02-12T17:14:52.547Z,7.84
2023-02-12T17:17:20.354Z,7.94
2023-02-12T17:19:49.603Z,7.91
2023-02-12T17:22:22.916Z,7.97
2023-02-12T17:24:51.671Z,7.87
2023-02-12T17:27:19.920Z,7.93
2023-02-12T17:29:47.952Z,7.89
2023-02-12T17:32:16.342Z,7.70
2023-02-12T17:34:48.853Z,7.75
2023-02-12T17:37:19.149Z,7.79
2023-02-12T17:39:47.074Z,7.83
2023-02-12T17:42:14.876Z,7.70
2023-02-12T17:44:42.689Z,7.85
2023-02-12T17:47:10.884Z,7.86
2023-02-12T17:49:39.884Z,7.77
2023-02-12T17:52:07.741Z,7.42
2023-02-12T17:54:37.116Z,7.83
2023-02-12T17:57:05.244Z,7.80
2023-02-12T17:59:33.053Z,7.38
2023-02-12T18:02:00.834Z,7.59
2023-02-12T18:04:28.611Z,7.63
2023-02-12T18:06:57.613Z,7.83
2023-02-12T18:09:25.433Z,7.57
2023-02-12T18:11:54.722Z,7.58
2023-02-12T18:14:22.536Z,7.57
2023-02-12T18:16:50.443Z,7.14
2023-02-12T18:19:18.306Z,6.97
2023-02-12T18:21:46.368Z,7.42
2023-02-12T18:24:14.411Z,7.31
2023-02-12T18:26:42.332Z,6.97
2023-02-12T18:29:11.494Z,7.29
2023-02-12T18:31:39.454Z,7.42
2023-02-12T18:34:07.876Z,7.09
2023-02-12T18:36:35.943Z,7.30
2023-02-12T18:39:03.846Z,7.45
2023-02-12T18:41:34.294Z,7.09
2023-02-12T18:44:02.666Z,7.36
2023-02-12T18:46:32.527Z,7.60
2023-02-12T18:49:00.837Z,7.32
2023-02-12T18:51:30.823Z,7.56
2023-02-12T18:54:01.547Z,7.53
2023-02-12T18:56:30.019Z,7.14
2023-02-12T18:58:58.704Z,7.42
2023-02-12T19:01:27.899Z,7.40
2023-02-12T19:03:59.045Z,7.53
2023-02-12T19:06:27.562Z,7.41
2023-02-12T19:08:56.848Z,7.38
2023-02-12T19:11:24.999Z,7.38
2023-02-12T19:13:52.910Z,7.37
2023-02-12T19:16:23.543Z,7.31
2023-02-12T19:18:54.661Z,7.42
2023-02-12T19:21:26.121Z,7.37
2023-02-12T19:23:54.930Z,6.82
2023-02-12T19:26:23.925Z,7.50
2023-02-12T19:28:51.769Z,7.44
2023-02-12T19:31:22.189Z,7.46
2023-02-12T19:33:51.657Z,7.44
2023-02-12T19:36:21.424Z,7.55
2023-02-12T19:38:51.126Z,7.09
2023-02-12T19:41:21.565Z,7.08
2023-02-12T19:43:53.330Z,7.34
2023-02-12T19:46:21.517Z,7.21
2023-02-12T19:48:49.888Z,7.38
2023-02-12T19:51:19.062Z,7.40
2023-02-12T19:53:48.037Z,7.48
2023-02-12T19:56:17.886Z,7.53
2023-02-12T19:58:46.461Z,7.41
2023-02-12T20:01:17.594Z,7.32
2023-02-12T20:03:46.368Z,7.38
2023-02-12T20:06:16.977Z,7.49
2023-02-12T20:08:45.049Z,7.53
2023-02-12T20:11:15.280Z,7.42
2023-02-12T20:13:45.123Z,7.59
2023-02-12T20:16:15.973Z,7.28
2023-02-12T20:18:44.805Z,7.57
2023-02-12T20:21:15.296Z,7.31
2023-02-12T20:23:43.274Z,7.29
2023-02-12T20:26:14.067Z,7.35
2023-02-12T20:28:42.906Z,7.55
2023-02-12T20:31:15.604Z,7.59
2023-02-12T20:33:44.277Z,6.98
2023-02-12T20:36:14.284Z,7.49
2023-02-12T20:38:44.744Z,7.52
2023-02-12T20:41:13.307Z,7.65
2023-02-12T20:43:41.141Z,7.59
2023-02-12T20:46:11.770Z,7.61
2023-02-12T20:48:42.070Z,7.54
2023-02-12T20:51:11.865Z,7.55
2023-02-12T20:53:39.951Z,7.59
2023-02-12T20:56:10.154Z,7.70
2023-02-12T20:58:38.914Z,7.35
2023-02-12T21:01:07.936Z,7.54
2023-02-12T21:03:36.477Z,7.61
2023-02-12T21:06:06.197Z,7.51
2023-02-12T21:08:37.059Z,7.64
2023-02-12T21:11:07.818Z,7.54
2023-02-12T21:13:35.612Z,7.42
2023-02-12T21:16:06.184Z,7.60
2023-02-12T21:18:34.092Z,7.43
2023-02-12T21:21:03.248Z,7.44
2023-02-12T21:23:33.513Z,7.48
2023-02-12T21:26:03.106Z,7.51
2023-02-12T21:28:32.607Z,7.42
2023-02-12T21:31:07.290Z,7.52
2023-02-12T21:33:35.376Z,7.41
2023-02-12T21:36:08.683Z,7.45
2023-02-12T21:38:39.380Z,7.21
2023-02-12T21:41:08.771Z,7.48
2023-02-12T21:43:37.014Z,7.39
2023-02-12T21:46:05.453Z,7.52
2023-02-12T21:48:34.372Z,7.59
2023-02-12T21:51:02.737Z,7.38
2023-02-12T21:53:30.782Z,7.27
2023-02-12T21:56:03.270Z,7.21
2023-02-12T21:58:31.087Z,7.34
2023-02-12T22:01:07.137Z,7.37
2023-02-12T22:03:34.953Z,7.37
2023-02-12T22:06:03.261Z,7.06
2023-02-12T22:08:31.257Z,7.36
2023-02-12T22:11:02.638Z,7.20
2023-02-12T22:13:31.069Z,7.23
2023-02-12T22:15:58.936Z,7.20
2023-02-12T22:18:26.745Z,7.53
2023-02-12T22:20:54.542Z,6.86
2023-02-12T22:23:22.296Z,7.46
2023-02-12T22:25:50.076Z,7.36
2023-02-12T22:28:19.380Z,7.29
2023-02-12T22:30:47.153Z,7.41
2023-02-12T22:33:15.011Z,7.47
2023-02-12T22:35:42.746Z,7.34
2023-02-12T22:38:10.498Z,7.39
2023-02-12T22:40:38.639Z,7.40
2023-02-12T22:43:06.455Z,7.48
2023-02-12T22:45:35.732Z,7.32
2023-02-12T22:48:03.562Z,7.24
2023-02-12T22:50:31.418Z,7.33
2023-02-12T22:52:59.214Z,7.38
2023-02-12T22:55:26.984Z,7.34
2023-02-12T22:57:54.760Z,7.32
2023-02-12T23:00:22.805Z,7.35
2023-02-12T23:02:51.967Z,7.32
2023-02-12T23:05:19.759Z,7.29
2023-02-12T23:07:47.590Z,7.33
2023-02-12T23:10:15.381Z,7.18
2023-02-12T23:12:43.204Z,7.27
2023-02-12T23:15:11.419Z,7.43
2023-02-12T23:17:39.205Z,7.29
2023-02-12T23:20:09.526Z,7.29
2023-02-12T23:22:37.337Z,7.33
2023-02-12T23:25:05.406Z,7.32
2023-02-12T23:27:33.202Z,7.30
2023-02-12T23:30:00.981Z,7.37
2023-02-12T23:32:28.853Z,7.40
2023-02-12T23:34:56.810Z,7.34
2023-02-12T23:37:26.060Z,7.30
2023-02-12T23:39:53.856Z,7.34
2023-02-12T23:42:21.658Z,7.33
2023-02-12T23:44:49.438Z,7.31
2023-02-12T23:47:17.226Z,7.12
2023-02-12T23:49:45.186Z,7.14
2023-02-12T23:52:13.001Z,7.19
2023-02-12T23:54:42.142Z,7.08
2023-02-12T23:57:09.938Z,7.19
2023-02-12T23:59:37.859Z,7.15
